createdAt,value
2024-02-24T00:14:11.860Z,5.6
2024-02-24T00:24:11.844Z,5.6
2024-02-24T00:34:11.905Z,5.6
2024-02-24T00:44:11.844Z,5.5
2024-02-24T00:54:11.835Z,5.5
2024-02-24T01:04:11.955Z,5.5
2024-02-24T01:14:11.922Z,5.5
2024-02-24T01:24:11.806Z,5.5
2024-02-24T01:34:11.964Z,5.4
2024-02-24T01:44:11.809Z,5.4
2024-02-24T01:54:11.780Z,5.4
2024-02-24T02:04:11.591Z,5.4
2024-02-24T02:14:11.769Z,5.4
2024-02-24T02:24:11.753Z,5.4
2024-02-24T02:34:11.843Z,5.4
2024-02-24T02:44:11.786Z,5.4
2024-02-24T02:54:11.550Z,5.4
2024-02-24T03:04:11.760Z,5.4
2024-02-24T03:14:11.754Z,5.3
2024-02-24T03:24:11.728Z,5.3
2024-02-24T03:34:11.822Z,5.3
2024-02-24T03:44:11.712Z,5.3
2024-02-24T03:54:11.737Z,5.3
2024-02-24T04:04:11.737Z,5.3
2024-02-24T04:14:11.698Z,5.3
2024-02-24T04:24:11.677Z,5.3
2024-02-24T04:34:11.732Z,5.3
2024-02-24T04:44:11.685Z,5.3
2024-02-24T04:54:11.663Z,5.3
2024-02-24T05:04:11.677Z,5.3
2024-02-24T05:14:11.672Z,5.3
2024-02-24T05:24:11.637Z,5.3
2024-02-24T05:34:11.752Z,5.3
2024-02-24T05:44:11.653Z,5.3
2024-02-24T05:54:11.618Z,5.3
2024-02-24T06:04:11.576Z,5.3
2024-02-24T06:14:11.409Z,5.3
2024-02-24T06:24:11.600Z,5.3
2024-02-24T06:34:11.697Z,5.3
2024-02-24T06:44:11.712Z,5.3
2024-02-24T06:54:11.577Z,5.3
2024-02-24T07:04:11.582Z,5.3
2024-02-24T07:14:11.585Z,5.3
2024-02-24T07:24:11.556Z,5.3
2024-02-24T07:34:11.913Z,5.3
2024-02-24T07:44:11.576Z,5.3
2024-02-24T07:54:11.523Z,5.3
2024-02-24T08:04:11.523Z,5.3
2024-02-24T08:14:11.670Z,5.4
2024-02-24T08:24:11.509Z,5.4
2024-02-24T08:34:11.635Z,5.4
2024-02-24T08:44:11.606Z,5.4
2024-02-24T08:54:11.479Z,5.5
2024-02-24T09:04:11.266Z,5.5
2024-02-24T09:14:11.499Z,5.6
2024-02-24T09:24:11.459Z,5.6
2024-02-24T09:34:11.770Z,5.6
2024-02-24T09:44:11.504Z,5.7
2024-02-24T09:54:11.377Z,5.7
2024-02-24T10:04:11.431Z,5.8
2024-02-24T10:14:11.433Z,5.8
2024-02-24T10:24:11.497Z,5.8
2024-02-24T10:34:11.526Z,5.8
2024-02-24T10:54:11.446Z,5.8
2024-02-24T11:04:11.462Z,5.8
2024-02-24T11:14:11.360Z,5.8
2024-02-24T11:24:11.349Z,5.9
2024-02-24T11:34:11.366Z,5.9
2024-02-24T11:44:11.258Z,6
2024-02-24T11:54:11.107Z,6
2024-02-24T12:04:11.340Z,6
2024-02-24T12:14:11.264Z,6
2024-02-24T12:24:11.299Z,6
2024-02-24T12:34:11.314Z,6.1
2024-02-24T12:44:11.249Z,6.2
2024-02-24T12:54:11.290Z,6.2
2024-02-24T13:04:11.275Z,6.3
2024-02-24T13:14:11.228Z,6.3
2024-02-24T13:24:11.229Z,6.2
2024-02-24T13:34:11.323Z,6.2
2024-02-24T13:44:11.197Z,6.2
2024-02-24T13:54:11.182Z,6.3
2024-02-24T14:14:11.184Z,6.3
2024-02-24T14:24:11.164Z,6.3
2024-02-24T14:34:11.188Z,6.3
2024-02-24T14:44:11.160Z,6.3
2024-02-24T14:54:11.126Z,6.3
2024-02-24T15:04:11.245Z,6.2
2024-02-24T15:14:10.880Z,6.2
2024-02-24T15:24:11.113Z,6.2
2024-02-24T15:34:11.041Z,6.1
2024-02-24T15:44:11.093Z,6.1
2024-02-24T15:54:11.111Z,6.1
2024-02-24T16:04:11.071Z,6
2024-02-24T16:14:11.038Z,6
2024-02-24T16:24:11.049Z,6
2024-02-24T16:34:11.356Z,5.9
2024-02-24T16:44:11.007Z,5.9
2024-02-24T16:54:11.019Z,5.8
2024-02-24T17:04:11.030Z,5.8
2024-02-24T17:14:10.995Z,5.7
2024-02-24T17:24:11.001Z,5.7
2024-02-24T17:34:11.199Z,5.6
2024-02-24T17:44:10.962Z,5.6
2024-02-24T17:54:11.038Z,5.6
2024-02-24T18:04:11.045Z,5.5
2024-02-24T18:14:10.393Z,5.5
2024-02-24T18:24:10.945Z,5.5
2024-02-24T18:34:11.176Z,5.4
2024-02-24T18:44:10.934Z,5.4
2024-02-24T18:54:10.964Z,5.4
2024-02-24T19:04:10.975Z,5.3
2024-02-24T19:14:10.889Z,5.3
2024-02-24T19:24:12.453Z,5.3
2024-02-24T19:34:11.175Z,5.2
2024-02-24T19:54:10.911Z,5.2
2024-02-24T20:04:10.940Z,5.1
2024-02-24T20:14:10.872Z,5.1
2024-02-24T20:24:10.921Z,5.1
2024-02-24T20:44:10.868Z,5
2024-02-24T20:54:10.932Z,5
2024-02-24T21:04:10.930Z,5
2024-02-24T21:14:10.854Z,5
2024-02-24T21:24:10.914Z,5
2024-02-24T21:34:10.749Z,5
2024-02-24T21:54:10.774Z,4.9
2024-02-24T22:04:10.871Z,4.9
2024-02-24T22:14:10.605Z,4.9
2024-02-24T22:24:10.907Z,4.9
2024-02-24T22:34:10.926Z,4.9
2024-02-24T22:44:10.751Z,4.9
2024-02-24T22:54:10.802Z,4.9
2024-02-24T23:04:10.856Z,4.9
2024-02-24T23:14:10.596Z,4.9
2024-02-24T23:24:10.779Z,4.9
2024-02-24T23:34:10.954Z,4.9
2024-02-24T23:44:10.757Z,4.9
2024-02-24T23:54:10.765Z,4.9
